createdAt,value
2022-10-06T00:09:48.305Z,71.77
2022-10-06T00:19:48.407Z,71.88
2022-10-06T00:29:48.428Z,73.13
2022-10-06T00:39:48.758Z,73.67
2022-10-06T00:49:48.777Z,71.97
2022-10-06T00:59:49.103Z,74.01
2022-10-06T01:09:49.128Z,74.01
2022-10-06T01:19:49.458Z,76.52
2022-10-06T01:29:49.485Z,71.94
2022-10-06T01:39:49.819Z,71.73
2022-10-06T01:49:49.880Z,73.19
2022-10-06T01:59:54.543Z,74.69
2022-10-06T02:09:50.232Z,76.18
2022-10-06T02:19:50.501Z,75.54
2022-10-06T02:29:50.546Z,77.78
2022-10-06T02:39:50.867Z,76.93
2022-10-06T02:49:50.914Z,77.44
2022-10-06T02:59:51.199Z,78.53
2022-10-06T03:09:51.233Z,77.68
2022-10-06T03:19:51.553Z,77.98
2022-10-06T03:29:51.618Z,78.84
2022-10-06T03:39:52.941Z,78.53
2022-10-06T03:49:51.964Z,78.19
2022-10-06T03:59:52.252Z,81.30
2022-10-06T04:09:52.278Z,81.30
2022-10-06T04:19:52.694Z,82.26
2022-10-06T04:29:52.709Z,85.64
2022-10-06T04:39:53.155Z,84.58
2022-10-06T04:49:53.175Z,79.32
2022-10-06T04:59:53.503Z,80.38
2022-10-06T05:09:53.529Z,79.43
2022-10-06T05:19:54.772Z,83.51
2022-10-06T05:29:54.043Z,82.50
2022-10-06T05:39:55.144Z,82.15
2022-10-06T05:49:54.240Z,84.42
2022-10-06T05:59:56.606Z,86.20
2022-10-06T06:09:54.445Z,86.55
2022-10-06T06:19:54.812Z,88.80
2022-10-06T06:29:54.851Z,87.12
2022-10-06T06:39:55.160Z,82.67
2022-10-06T06:49:55.210Z,76.22
2022-10-06T06:59:55.826Z,73.60
2022-10-06T07:09:55.806Z,71.84
2022-10-06T07:19:55.964Z,72.41
2022-10-06T07:29:56.479Z,72.01
2022-10-06T07:39:56.208Z,70.82
2022-10-06T07:49:56.233Z,71.33
2022-10-06T08:00:00.546Z,71.16
2022-10-06T08:09:57.624Z,71.53
2022-10-06T08:19:56.914Z,70.35
2022-10-06T08:29:56.940Z,70.32
2022-10-06T08:39:57.263Z,69.04
2022-10-06T08:49:57.768Z,66.92
2022-10-06T08:59:58.061Z,66.02
2022-10-06T09:09:58.126Z,64.10
2022-10-06T09:19:58.243Z,63.00
2022-10-06T09:29:58.453Z,56.38
2022-10-06T09:39:58.773Z,59.52
2022-10-06T09:49:58.720Z,60.62
2022-10-06T09:59:59.010Z,59.74
2022-10-06T10:09:58.958Z,57.37
2022-10-06T10:19:59.091Z,57.35
2022-10-06T10:29:59.198Z,56.72
2022-10-06T10:39:59.053Z,54.57
2022-10-06T10:49:59.083Z,54.44
2022-10-06T10:59:59.400Z,53.54
2022-10-06T11:09:59.420Z,56.79
2022-10-06T11:19:59.759Z,53.77
2022-10-06T11:30:00.173Z,55.54
2022-10-06T11:40:00.279Z,55.96
2022-10-06T11:50:00.175Z,54.81
2022-10-06T12:00:00.455Z,56.83
2022-10-06T12:10:00.474Z,55.76
2022-10-06T12:20:00.800Z,53.36
2022-10-06T12:30:01.531Z,53.09
2022-10-06T12:40:00.945Z,53.89
2022-10-06T12:50:01.178Z,54.56
2022-10-06T13:00:01.554Z,55.85
2022-10-06T13:10:01.657Z,54.98
2022-10-06T13:20:02.099Z,56.35
2022-10-06T13:30:01.967Z,54.24
2022-10-06T13:40:02.459Z,56.18
2022-10-06T13:50:02.987Z,55.23
2022-10-06T14:00:02.613Z,54.63
2022-10-06T14:10:02.736Z,57.92
2022-10-06T14:20:06.154Z,58.37
2022-10-06T14:30:03.191Z,57.35
2022-10-06T14:40:03.461Z,57.57
2022-10-06T14:50:03.315Z,57.28
2022-10-06T15:00:03.852Z,58.17
2022-10-06T15:10:03.735Z,59.32
2022-10-06T15:20:04.051Z,61.00
2022-10-06T15:30:04.087Z,63.66
2022-10-06T15:40:04.404Z,65.59
2022-10-06T15:50:04.426Z,69.35
2022-10-06T16:00:04.955Z,68.85
2022-10-06T16:10:04.777Z,69.82
2022-10-06T16:20:05.099Z,71.26
2022-10-06T16:30:05.154Z,72.24
2022-10-06T16:40:05.444Z,73.58
2022-10-06T16:50:05.484Z,75.26
2022-10-06T17:00:05.824Z,76.30
2022-10-06T17:10:20.173Z,77.28
2022-10-06T17:20:06.940Z,78.32
2022-10-06T17:30:06.291Z,78.32
2022-10-06T17:40:06.341Z,79.91
2022-10-06T17:50:06.782Z,80.21
2022-10-06T18:00:06.802Z,80.41
2022-10-06T18:10:07.129Z,80.90
2022-10-06T18:20:07.149Z,82.75
2022-10-06T18:30:07.940Z,81.10
2022-10-06T18:40:07.840Z,81.84
2022-10-06T18:50:07.878Z,82.69
2022-10-06T19:00:08.058Z,82.28
2022-10-06T19:10:08.128Z,82.24
2022-10-06T19:20:08.118Z,83.33
2022-10-06T19:30:08.338Z,83.74
2022-10-06T19:40:08.792Z,84.48
2022-10-06T19:50:12.646Z,86.90
2022-10-06T20:00:08.851Z,89.01
2022-10-06T20:10:09.126Z,86.73
2022-10-06T20:20:09.171Z,88.68
2022-10-06T20:30:09.479Z,90.35
2022-10-06T20:40:09.495Z,87.87
2022-10-06T20:50:09.893Z,88.82
2022-10-06T21:00:09.925Z,89.37
2022-10-06T21:10:10.334Z,91.14
2022-10-06T21:20:10.461Z,91.39
2022-10-06T21:30:10.602Z,90.58
2022-10-06T21:40:10.703Z,90.88
2022-10-06T21:50:10.926Z,89.97
2022-10-06T22:00:11.026Z,89.81
2022-10-06T22:10:11.171Z,90.92
2022-10-06T22:20:11.273Z,90.77
2022-10-06T22:30:11.422Z,92.23
2022-10-06T22:40:11.569Z,92.74
2022-10-06T22:50:11.788Z,92.18
2022-10-06T23:00:11.900Z,92.38
2022-10-06T23:10:11.996Z,92.01
2022-10-06T23:20:12.127Z,92.72
2022-10-06T23:30:12.319Z,93.07
2022-10-06T23:40:12.407Z,93.73
2022-10-06T23:50:12.501Z,93.22
